Weather observations for the past three days for
Clinton, MO
Imperial (Metric)
Date Time (cdt) Wind (mph) Vis. (mi.) Weather Sky Cond. Temperature (ºF) Relative Humidity Wind Chill (°F) Heat Index (°F) Pressure Precipitation (in)
Air Dwpt 6 hour altimeter (in) sea level (mb) 1 hr 3 hr 6 hr
Max. Min.
06 12:15 Calm 10.00 Fair CLR 96.8 68 39% 102 29.98 0.0
06 11:55 E 5 10.00 Fair CLR 96.8 68 39% 102 29.98 0.0
06 11:35 Vrbl 5 10.00 Fair CLR 96.8 69.8 42% 103 29.99 0.0
06 11:15 Calm 10.00 Fair CLR 95 71.6 47% 103 29.99 0.0
06 10:55 Vrbl 5 10.00 Fair CLR 93.2 71.6 50% 101 29.99 0.0
06 10:35 Vrbl 3 10.00 Fair CLR 93.2 71.6 50% 101 29.99 0.0
06 10:15 Calm 10.00 Fair CLR 91.4 71.6 52% 99 29.99 0.0
06 09:55 E 6 10.00 Fair CLR 89.6 71.6 55% 96 29.99 0.0
06 09:35 E 6 10.00 Fair CLR 87.8 71.6 59% 94 29.99 0.0
06 09:15 E 7 10.00 Fair CLR 86 71.6 62% 92 29.99 0.0
06 08:55 E 6 10.00 Fair CLR 84.2 71.6 66% 90 29.98 0.0
06 08:35 E 5 10.00 Fair CLR 82.4 71.6 70% 87 29.98 0.0
06 08:15 E 5 10.00 Fair CLR 78.8 71.6 79% 82 29.98 0.0
06 07:55 Calm 10.00 Fair CLR 77 69.8 79% 79 29.97 0.0
06 07:35 Calm 10.00 Fair CLR 75.2 69.8 83% 75 29.97 0.0
06 07:15 Calm 10.00 Fair CLR 73.4 69.8 89% 29.96 0.0
06 06:55 Calm 10.00 Fair CLR 73.4 68 83% 29.96 0.0
06 06:35 Calm 10.00 Fair CLR 75.2 68 78% 76 29.95 0.0
06 06:15 Calm 10.00 Fair CLR 73.4 68 83% 29.95 0.0
06 05:55 Calm 10.00 Fair CLR 75.2 68 78% 76 29.95 0.0
06 05:35 Calm 10.00 Fair CLR 75.2 68 78% 76 29.95 0.0
06 05:15 Calm 10.00 Fair CLR 75.2 69.8 83% 75 29.94 0.0
06 04:55 Calm 10.00 Fair CLR 75.2 69.8 83% 75 29.94 0.0
06 04:35 Calm 10.00 Fair CLR 73.4 69.8 89% 29.94 0.0
06 04:15 Calm 10.00 Fair CLR 73.4 69.8 89% 29.94 0.0
06 03:55 Calm 10.00 Fair CLR 73.4 69.8 89% 29.93 0.0
06 03:35 NE 6 10.00 Fair CLR 73.4 69.8 89% 29.93 0.0
06 03:15 Calm 10.00 Fair CLR 75.2 69.8 83% 75 29.92 0.0
06 02:55 Calm 10.00 Fair CLR 75.2 69.8 83% 75 29.92 0.0
06 02:35 Calm 10.00 Fair CLR 75.2 69.8 83% 75 29.92 0.0
06 02:15 Calm 10.00 Fair CLR 75.2 69.8 83% 75 29.93 0.0
06 01:55 Calm 10.00 Fair CLR 75.2 69.8 83% 75 29.93 0.0
06 01:35 Calm 9.00 A Few Clouds FEW085 77 69.8 79% 79 29.93 0.0
06 01:15 Calm 7.00 A Few Clouds FEW085 77 69.8 79% 79 29.94 0.0
06 00:55 Calm 10.00 A Few Clouds FEW085 75.2 69.8 83% 75 29.94 0.0
06 00:35 Calm 10.00 Fair CLR 77 69.8 79% 79 29.94 0.0
06 00:15 Calm 10.00 Fair CLR 78.8 69.8 74% 81 29.94 0.0
05 23:55 Calm 10.00 Fair CLR 80.6 69.8 70% 84 29.94 0.0
05 23:35 Calm 10.00 Fair CLR 78.8 68 70% 81 29.94 0.0
05 23:15 Calm 10.00 Fair CLR 82.4 68 62% 85 29.94 0.0
05 22:55 Calm 10.00 Fair CLR 82.4 68 62% 85 29.94 0.0
05 22:35 Calm 10.00 Fair CLR 84.2 68 58% 87 29.93 0.0
05 22:15 Calm 10.00 Fair CLR 86 68 55% 89 29.93 0.0
05 21:55 Calm 10.00 Fair CLR 84.2 68 58% 87 29.92 0.0
05 21:35 Calm 10.00 Fair CLR 84.2 68 58% 87 29.92 0.0
05 21:15 Calm 10.00 Fair CLR 84.2 69.8 62% 88 29.91 0.0
05 20:55 Calm 10.00 Fair CLR 87.8 68 52% 91 29.9 0.0
05 20:35 NE 5 10.00 Fair CLR 86 68 55% 89 29.9 0.0
05 20:15 Calm 10.00 Fair CLR 86 69.8 59% 91 29.89 0.0
05 19:55 Calm 10.00 Fair CLR 89.6 68 49% 93 29.88 0.0
05 19:35 Calm 10.00 Fair CLR 91.4 69.8 49% 97 29.88 0.0
05 19:15 Calm 10.00 Fair CLR 93.2 69.8 47% 99 29.88 0.0
05 18:55 NE 6 10.00 Fair CLR 95 68 41% 100 29.88 0.0
05 18:35 NE 7 10.00 Fair CLR 96.8 68 39% 102 29.88 0.0
05 18:15 NE 7 10.00 Fair CLR 96.8 68 39% 102 29.88 0.0
05 17:55 NE 7 G 15 10.00 Fair CLR 96.8 68 39% 102 29.88 0.0
05 17:35 N 12 10.00 Fair CLR 96.8 66.2 37% 100 29.88 0.0
05 17:15 N 5 10.00 Fair CLR 100.4 64.4 31% 104 29.88 0.0
05 16:55 N 7 10.00 Fair CLR 100.4 64.4 31% 104 29.88 0.0
05 16:35 Calm 10.00 Fair CLR 100.4 62.6 29% 102 29.88 0.0
05 16:15 Calm 10.00 Fair CLR 100.4 62.6 29% 102 29.89 0.0
05 15:55 Calm 9.00 Fair CLR 100.4 62.6 29% 102 29.9 0.0
05 15:35 W 5 10.00 Fair CLR 100.4 64.4 31% 104 29.91 0.0
05 15:15 Calm 10.00 Fair CLR 100.4 64.4 31% 104 29.91 0.0
05 14:55 NW 5 10.00 Fair CLR 100.4 64.4 31% 104 29.92 0.0
05 12:55 Calm 10.00 Fair CLR 98.6 66.2 35% 103 29.97 0.0
05 12:35 Calm 10.00 Fair CLR 98.6 68 37% 104 29.97 0.0
05 12:15 S 5 10.00 Fair CLR 98.6 68 37% 104 29.98 0.0
05 11:55 W 7 10.00 Fair CLR 96.8 68 39% 102 29.99 0.0
05 11:35 Vrbl 3 10.00 Fair CLR 96.8 68 39% 102 29.99 0.0
05 11:15 Calm 10.00 Fair CLR 95 68 41% 100 29.99 0.0
05 10:55 Calm 10.00 Fair CLR 93.2 69.8 47% 99 29.99 0.0
05 10:35 Calm 10.00 Fair CLR 91.4 69.8 49% 97 29.99 0.0
05 10:15 Calm 10.00 Fair CLR 89.6 69.8 52% 95 29.99 0.0
05 09:55 Calm 10.00 Fair CLR 87.8 69.8 55% 93 29.99 0.0
05 09:35 Calm 10.00 Fair CLR 86 69.8 59% 91 29.98 0.0
05 09:15 Calm 10.00 Fair CLR 84.2 69.8 62% 88 29.98 0.0
05 08:55 Calm 10.00 Fair CLR 84.2 69.8 62% 88 29.98 0.0
05 08:35 Calm 10.00 Fair CLR 82.4 69.8 66% 86 29.97 0.0
05 08:15 Calm 10.00 Fair CLR 80.6 69.8 70% 84 29.97 0.0
05 07:55 Calm 10.00 Fair CLR 77 69.8 79% 79 29.96 0.0
05 07:35 Calm 7.00 Fair CLR 73.4 69.8 89% 29.96 0.0
05 07:15 Calm 10.00 Fair CLR 71.6 68 88% 29.96 0.0
05 06:55 Calm 10.00 Fair CLR 71.6 68 88% 29.95 0.0
05 06:35 Calm 10.00 Fair CLR 71.6 68 88% 29.94 0.0
05 06:15 Calm 10.00 Fair CLR 71.6 68 88% 29.94 0.0
05 05:55 Calm 10.00 Fair CLR 71.6 68 88% 29.93 0.0
05 05:35 Calm 10.00 Fair CLR 71.6 68 88% 29.93 0.0
05 05:15 Calm 10.00 Fair CLR 71.6 68 88% 29.93 0.0
05 04:55 Calm 10.00 Fair CLR 71.6 68 88% 29.93 0.0
05 04:35 Calm 10.00 Fair CLR 71.6 68 88% 29.94 0.0
05 04:15 Calm 10.00 Fair CLR 73.4 68 83% 29.93 0.0
05 03:55 Calm 10.00 Fair CLR 73.4 68 83% 29.93 0.0
05 03:35 Calm 10.00 Fair CLR 75.2 68 78% 76 29.92 0.0
05 03:15 Calm 10.00 Fair CLR 75.2 68 78% 76 29.92 0.0
05 02:55 Calm 10.00 Fair CLR 73.4 68 83% 29.92 0.0
05 02:35 Calm 10.00 Fair CLR 73.4 68 83% 29.92 0.0
05 02:15 S 3 9.00 Fair CLR 73.4 68 83% 29.92 0.0
05 01:55 Calm 10.00 Fair CLR 73.4 68 83% 29.93 0.0
05 01:35 Calm 10.00 Fair CLR 75.2 68 78% 76 29.93 0.0
05 01:15 Calm 10.00 Fair CLR 75.2 68 78% 76 29.93 0.0
05 00:55 Calm 10.00 Fair CLR 75.2 68 78% 76 29.93 0.0
05 00:35 Calm 10.00 Fair CLR 77 68 74% 79 29.92 0.0
05 00:15 Calm 10.00 Fair CLR 75.2 68 78% 76 29.93 0.0
04 23:55 Calm 10.00 Fair CLR 77 68 74% 79 29.93 0.0
04 23:35 Calm 10.00 Fair CLR 77 68 74% 79 29.93 0.0
04 23:15 Calm 10.00 Fair CLR 77 68 74% 79 29.93 0.0
04 22:55 Calm 10.00 Fair CLR 75.2 68 78% 76 29.93 0.0
04 22:35 Calm 10.00 Fair CLR 78.8 69.8 74% 81 29.93 0.0
04 22:15 Calm 10.00 Fair CLR 78.8 68 70% 81 29.92 0.0
04 21:55 W 5 9.00 Fair CLR 80.6 68 66% 83 29.92 0.0
04 21:35 Calm 8.00 Fair CLR 80.6 69.8 70% 84 29.91 0.0
04 21:15 Calm 10.00 Fair CLR 80.6 69.8 70% 84 29.91 0.0
04 20:55 Calm 10.00 Fair CLR 82.4 69.8 66% 86 29.9 0.0
04 20:35 Calm 10.00 Fair CLR 84.2 68 58% 87 29.9 0.0
04 20:15 Calm 10.00 Fair CLR 86 68 55% 89 29.89 0.0
04 19:55 Calm 10.00 Fair CLR 87.8 66.2 49% 90 29.89 0.0
04 19:35 Calm 10.00 Fair CLR 93.2 64.4 39% 95 29.89 0.0
04 19:15 Calm 10.00 Fair CLR 95 64.4 36% 97 29.89 0.0
04 18:55 S 3 10.00 Fair CLR 96.8 64.4 34% 99 29.89 0.0
04 18:35 S 3 10.00 Fair CLR 98.6 62.6 31% 100 29.89 0.0
04 18:15 SW 6 10.00 Fair CLR 98.6 62.6 31% 100 29.89 0.0
04 17:55 S 6 10.00 Fair CLR 98.6 62.6 31% 100 29.89 0.0
04 17:35 SW 8 10.00 Fair CLR 100.4 62.6 29% 102 29.89 0.0
04 17:15 SE 7 G 15 10.00 Fair CLR 100.4 64.4 31% 104 29.89 0.0
04 16:55 Calm 10.00 Fair CLR 100.4 64.4 31% 104 29.9 0.0
04 16:35 Vrbl 5 G 12 10.00 Fair CLR 100.4 64.4 31% 104 29.9 0.0
04 16:15 S 8 10.00 Fair CLR 100.4 64.4 31% 104 29.9 0.0
04 15:55 S 9 G 15 10.00 Fair CLR 100.4 64.4 31% 104 29.91 0.0
04 15:35 SW 9 10.00 Fair CLR 100.4 66.2 33% 105 29.92 0.0
04 15:15 S 8 G 18 10.00 Fair CLR 100.4 66.2 33% 105 29.92 0.0
04 14:55 Vrbl 6 G 13 10.00 Fair CLR 98.6 66.2 35% 103 29.93 0.0
04 14:35 Calm 10.00 Fair CLR 98.6 66.2 35% 103 29.93 0.0
04 14:15 SW 9 G 15 10.00 Fair CLR 98.6 66.2 35% 103 29.94 0.0
04 13:55 SW 7 G 17 10.00 Fair CLR 98.6 66.2 35% 103 29.95 0.0
04 13:35 Vrbl 6 G 12 10.00 Fair CLR 96.8 68 39% 102 29.95 0.0
04 13:15 S 8 10.00 Fair CLR 96.8 66.2 37% 100 29.96 0.0
04 12:55 SW 8 G 14 10.00 Fair CLR 96.8 68 39% 102 29.97 0.0
04 12:35 SW 10 10.00 Fair CLR 95 68 41% 100 29.97 0.0
04 12:15 SW 8 G 16 10.00 Fair CLR 95 68 41% 100 29.98 0.0
04 11:55 S 9 10.00 Fair CLR 93.2 69.8 47% 99 29.99 0.0
04 11:35 S 9 10.00 Fair CLR 93.2 69.8 47% 99 29.99 0.0
04 11:15 S 7 10.00 Fair CLR 93.2 69.8 47% 99 29.99 0.0
04 10:55 SW 9 10.00 Fair CLR 91.4 69.8 49% 97 29.99 0.0
04 10:35 SW 10 10.00 Fair CLR 91.4 69.8 49% 97 29.99 0.0
04 10:15 SW 8 10.00 Fair CLR 89.6 71.6 55% 96 29.99 0.0
04 09:55 S 6 10.00 Fair CLR 87.8 69.8 55% 93 29.99 0.0
04 09:35 S 7 10.00 Fair CLR 87.8 69.8 55% 93 29.99 0.0
04 09:15 SW 6 10.00 Fair CLR 86 69.8 59% 91 29.99 0.0
04 08:55 S 6 10.00 Fair CLR 84.2 69.8 62% 88 29.99 0.0
04 08:35 S 6 10.00 Fair CLR 82.4 69.8 66% 86 29.99 0.0
04 08:15 S 6 10.00 Fair CLR 80.6 69.8 70% 84 29.99 0.0
04 07:55 S 6 10.00 Fair CLR 78.8 69.8 74% 81 29.98 0.0
04 07:35 S 5 10.00 Fair CLR 78.8 69.8 74% 81 29.98 0.0
04 07:15 S 3 10.00 Fair CLR 77 68 74% 79 29.98 0.0
04 06:55 S 5 10.00 Fair CLR 77 68 74% 79 29.97 0.0
04 06:35 S 5 10.00 Fair CLR 77 68 74% 79 29.97 0.0
04 06:15 Calm 10.00 Fair CLR 77 68 74% 79 29.96 0.0
04 05:55 Calm 10.00 Fair CLR 77 68 74% 79 29.96 0.0
04 05:35 S 3 10.00 Fair CLR 77 68 74% 79 29.95 0.0
04 05:15 S 5 10.00 Fair CLR 77 68 74% 79 29.95 0.0
04 04:55 S 3 10.00 Fair CLR 75.2 68 78% 76 29.94 0.0
04 04:35 Calm 10.00 Fair CLR 77 68 74% 79 29.94 0.0
04 04:15 Calm 10.00 Fair CLR 75.2 68 78% 76 29.93 0.0
04 03:55 Calm 10.00 Fair CLR 75.2 68 78% 76 29.92 0.0
04 03:35 Calm 10.00 Fair CLR 75.2 68 78% 76 29.92 0.0
04 03:15 Calm 10.00 Fair CLR 77 68 74% 79 29.92 0.0
04 02:55 Calm 10.00 Fair CLR 80.6 68 66% 83 29.92 0.0
04 02:35 Calm 10.00 Fair CLR 80.6 68 66% 83 29.92 0.0
04 02:15 S 3 10.00 Fair CLR 80.6 68 66% 83 29.92 0.0
04 01:55 S 5 10.00 Fair CLR 82.4 68 62% 85 29.92 0.0
04 01:35 S 6 10.00 Fair CLR 82.4 66.2 58% 85 29.92 0.0
04 01:15 S 6 10.00 Fair CLR 84.2 66.2 55% 87 29.92 0.0
04 00:55 S 8 10.00 Fair CLR 84.2 66.2 55% 87 29.91 0.0
04 00:35 S 8 10.00 Fair CLR 86 66.2 52% 88 29.91 0.0
04 00:15 S 8 10.00 Fair CLR 86 66.2 52% 88 29.91 0.0
03 23:55 S 9 10.00 Fair CLR 86 66.2 52% 88 29.91 0.0
03 23:35 S 8 10.00 Fair CLR 86 66.2 52% 88 29.9 0.0
03 23:15 S 7 10.00 Fair CLR 84.2 66.2 55% 87 29.9 0.0
03 22:55 S 7 10.00 Fair CLR 84.2 66.2 55% 87 29.9 0.0
03 22:35 SE 7 10.00 Fair CLR 84.2 66.2 55% 87 29.9 0.0
03 22:15 SE 7 10.00 Fair CLR 82.4 66.2 58% 85 29.9 0.0
03 21:55 S 7 9.00 Fair CLR 84.2 66.2 55% 87 29.9 0.0
03 21:35 SE 5 10.00 Fair CLR 84.2 66.2 55% 87 29.89 0.0
03 21:15 SE 5 10.00 Fair CLR 86 66.2 52% 88 29.89 0.0
03 20:55 Calm 9.00 Fair CLR 87.8 66.2 49% 90 29.88 0.0
03 20:35 Calm 10.00 Fair CLR 86 66.2 52% 88 29.87 0.0
03 20:15 Calm 10.00 Fair CLR 86 68 55% 89 29.87 0.0
03 19:55 Calm 10.00 Fair CLR 87.8 69.8 55% 93 29.87 0.0
03 19:35 Calm 10.00 Fair CLR 93.2 64.4 39% 95 29.87 0.0
03 19:15 Calm 10.00 Fair CLR 93.2 64.4 39% 95 29.87 0.0
03 18:55 Calm 10.00 Fair CLR 96.8 64.4 34% 99 29.87 0.0
03 18:35 S 7 10.00 Fair CLR 96.8 62.6 32% 98 29.86 0.0
03 18:15 S 7 10.00 Fair CLR 98.6 62.6 31% 100 29.86 0.0
03 17:55 SW 8 10.00 Fair CLR 98.6 62.6 31% 100 29.86 0.0
03 17:35 SW 7 10.00 Fair CLR 98.6 64.4 33% 101 29.86 0.0
03 17:15 S 12 10.00 Fair CLR 98.6 64.4 33% 101 29.86 0.0
03 16:55 SE 5 G 17 10.00 Fair CLR 98.6 64.4 33% 101 29.87 0.0
03 16:35 S 8 G 16 10.00 Fair CLR 100.4 64.4 31% 104 29.87 0.0
03 16:15 S 8 G 15 10.00 Fair CLR 98.6 64.4 33% 101 29.88 0.0
03 15:55 SW 8 G 14 0.00 Fair CLR 100.4 64.4 31% 104 29.88 0.0
03 15:35 S 7 G 13 10.00 Fair CLR 98.6 64.4 33% 101 29.88 0.0
03 15:15 S 8 10.00 A Few Clouds FEW070 98.6 66.2 35% 103 29.89 0.0
03 14:55 SW 10 10.00 A Few Clouds FEW070 98.6 66.2 35% 103 29.9 0.0
03 14:35 Calm 10.00 Fair CLR 98.6 66.2 35% 103 29.9 0.0
03 14:15 SW 10 G 17 10.00 Fair CLR 98.6 66.2 35% 103 29.91 0.0
03 13:55 S 12 10.00 Fair CLR 98.6 66.2 35% 103 29.92 0.0
03 13:35 SW 13 10.00 Fair CLR 96.8 66.2 37% 100 29.92 0.0
03 13:15 S 9 G 17 10.00 Fair CLR 96.8 66.2 37% 100 29.93 0.0
03 12:55 SW 8 G 15 10.00 Fair CLR 95 68 41% 100 29.94 0.0
03 12:35 SW 9 10.00 Fair CLR 95 68 41% 100 29.94 0.0
Date Time (cdt) Wind (mph) Vis. (mi.) Weather Sky Cond. Air Dwpt Max. Min. Relative Humidity Wind Chill (°F) Heat Index (°F) altimeter (in) sea level (mb) 1 hr 3 hr 6 hr
6 hour
Temperature (ºF) Pressure Precipitation (in)